»·PEaware :: N9BR KTVL-KMRY

N9BR :: KTVL-KMRY

FLIGHT INFORMATION

Flight Status: Arrived
Operator: Privately registered:
United States
More flights under this callsign
Pilot: John H. (7647)
Aircraft: MOONEY M-20 201 202 205 220 ATS MSE
(M20P)
More flights by this aircraft type
Origin: KTVL Lake Tahoe
United States
Destination: KMRY Monterey Peninsula
United States
More flights between these airports :: More routes between these airports
Route: + SPOOK V113 PATYY V111 SNS
File this flight plan on PilotEdge
Remarks:
Altitude:
(Current/Filed)
12,500ft
Speed:
(Current/Filed)
180kts
Departed: 18-Aug-18 12:47 PM
Arrived: 18-Aug-18 02:04 PM
Distance/Time
Traveled:
164nm/1:17
Distance/Time
To Go:
Arrived

Flight Plot

Page will automatically refresh every two minutes.

Flight plan parsing failed; only flown route is shown


Map Options




Map Legend


Flown Route
Filed Route
Departure Airport
Arrival Airport
Navaid (VOR, NDB)
Fix

Horizontal Profiles

Position Reports

Time Latitude Longitude Heading Altitude Ground
Speed
18-Aug-18 12:37 38.897579 -119.996467 93 6268ft 0kts
18-Aug-18 12:38 38.897579 -119.996467 93 6268ft 0kts
18-Aug-18 12:39 38.897579 -119.996467 93 6268ft 0kts
18-Aug-18 12:40 38.897579 -119.996467 93 6268ft 0kts
18-Aug-18 12:41 38.897579 -119.996467 93 6268ft 0kts
18-Aug-18 12:42 38.897511 -119.996010 108 6267ft 4kts
18-Aug-18 12:43 38.896546 -119.995570 189 6265ft 13kts
18-Aug-18 12:44 38.891302 -119.997091 192 6265ft 18kts
18-Aug-18 12:45 38.886473 -119.998504 192 6265ft 17kts
18-Aug-18 12:46 38.882723 -119.998587 37 6263ft 13kts
18-Aug-18 12:47 38.883040 -119.998450 11 6263ft 0kts
18-Aug-18 12:48 38.892803 -119.995568 7 6357ft 80kts
18-Aug-18 12:49 38.922081 -119.992843 340 6898ft 123kts
18-Aug-18 12:50 38.958040 -120.006635 335 7532ft 146kts
18-Aug-18 12:51 38.997028 -120.020861 320 8377ft 148kts
18-Aug-18 12:52 39.023774 -120.055005 313 9294ft 140kts
18-Aug-18 12:53 39.049991 -120.090771 313 10081ft 142kts
18-Aug-18 12:54 39.076376 -120.126931 313 10821ft 144kts
18-Aug-18 12:55 39.102809 -120.163200 313 11504ft 145kts
18-Aug-18 12:56 39.129010 -120.199188 313 12135ft 147kts
18-Aug-18 12:57 39.157085 -120.237736 313 12606ft 158kts
18-Aug-18 12:58 39.181270 -120.286906 251 12603ft 182kts
18-Aug-18 12:59 39.147493 -120.276180 103 12607ft 186kts
18-Aug-18 13:00 39.134177 -120.213637 120 12606ft 185kts
18-Aug-18 13:01 39.101843 -120.163179 132 12606ft 185kts
18-Aug-18 13:02 39.068402 -120.116733 132 12606ft 186kts
18-Aug-18 13:03 39.034200 -120.069369 133 12606ft 185kts
18-Aug-18 13:04 38.996670 -120.028676 180 12597ft 185kts
18-Aug-18 13:05 38.950017 -120.051468 210 12607ft 189kts
18-Aug-18 13:06 38.903684 -120.082456 211 12607ft 188kts
18-Aug-18 13:07 38.863119 -120.109716 211 12608ft 183kts
18-Aug-18 13:08 38.819687 -120.138883 208 12606ft 177kts
18-Aug-18 13:09 38.777046 -120.167466 206 12607ft 174kts
18-Aug-18 13:10 38.736229 -120.194791 206 12605ft 174kts
18-Aug-18 13:11 38.693926 -120.223093 205 12607ft 173kts
18-Aug-18 13:12 38.651351 -120.251514 207 12580ft 174kts
18-Aug-18 13:13 38.608988 -120.280571 208 12580ft 173kts
18-Aug-18 13:14 38.567445 -120.309661 208 12579ft 172kts
18-Aug-18 13:15 38.525646 -120.338874 208 12286ft 188kts
18-Aug-18 13:16 38.480251 -120.370511 208 11799ft 194kts
18-Aug-18 13:17 38.433701 -120.402899 208 11351ft 193kts
18-Aug-18 13:18 38.386183 -120.435990 208 10621ft 200kts
18-Aug-18 13:19 38.339677 -120.468285 209 10581ft 189kts
18-Aug-18 13:20 38.294369 -120.499712 210 10583ft 187kts
18-Aug-18 13:21 38.249759 -120.530652 210 10582ft 183kts
18-Aug-18 13:22 38.208381 -120.559307 209 10584ft 180kts
18-Aug-18 13:23 38.166819 -120.588022 207 10609ft 178kts
18-Aug-18 13:24 38.123618 -120.617841 207 10558ft 180kts
18-Aug-18 13:25 38.081306 -120.647010 207 10554ft 179kts
18-Aug-18 13:26 38.041576 -120.674363 208 10556ft 180kts
18-Aug-18 13:27 37.998182 -120.704200 206 10552ft 178kts
18-Aug-18 13:28 37.955042 -120.733825 207 10578ft 178kts
18-Aug-18 13:29 37.911555 -120.763654 207 10581ft 179kts
18-Aug-18 13:30 37.871357 -120.791184 207 10585ft 179kts
18-Aug-18 13:31 37.827187 -120.821391 207 10479ft 183kts
18-Aug-18 13:32 37.782898 -120.851650 206 10476ft 180kts
18-Aug-18 13:33 37.739234 -120.881428 207 10476ft 179kts
18-Aug-18 13:34 37.695550 -120.911181 207 10475ft 179kts
18-Aug-18 13:35 37.651716 -120.941004 207 10476ft 179kts
18-Aug-18 13:36 37.607929 -120.970761 207 10473ft 179kts
18-Aug-18 13:37 37.564025 -121.000538 207 10475ft 179kts
18-Aug-18 13:38 37.522442 -121.028666 207 10472ft 179kts
18-Aug-18 13:39 37.479092 -121.057995 207 10474ft 179kts
18-Aug-18 13:40 37.435301 -121.087635 207 10473ft 180kts
18-Aug-18 13:41 37.392848 -121.116301 207 10475ft 180kts
18-Aug-18 13:42 37.349489 -121.145538 207 10475ft 180kts
18-Aug-18 13:43 37.306703 -121.174354 207 10475ft 180kts
18-Aug-18 13:44 37.263121 -121.203663 207 10474ft 180kts
18-Aug-18 13:45 37.219377 -121.233090 207 10475ft 180kts
18-Aug-18 13:46 37.176025 -121.262216 207 10527ft 178kts
18-Aug-18 13:47 37.132787 -121.291188 207 10528ft 179kts
18-Aug-18 13:48 37.088997 -121.320493 207 10468ft 181kts
18-Aug-18 13:49 37.044457 -121.350333 207 9966ft 183kts
18-Aug-18 13:50 37.000206 -121.379870 208 9395ft 180kts
18-Aug-18 13:51 36.956626 -121.408912 208 8682ft 177kts
18-Aug-18 13:52 36.913859 -121.437446 209 7925ft 172kts
18-Aug-18 13:53 36.875390 -121.463018 211 7045ft 169kts
18-Aug-18 13:54 36.834711 -121.490017 211 6254ft 167kts
18-Aug-18 13:55 36.793854 -121.517085 211 5595ft 165kts
18-Aug-18 13:56 36.752180 -121.544694 213 4881ft 175kts
18-Aug-18 13:57 36.708982 -121.573188 212 4524ft 173kts
18-Aug-18 13:58 36.664028 -121.599542 182 4523ft 190kts
18-Aug-18 13:59 36.631666 -121.639757 216 4348ft 199kts
18-Aug-18 14:00 36.585017 -121.664711 218 4468ft 185kts
18-Aug-18 14:01 36.542142 -121.700660 259 4487ft 170kts
18-Aug-18 14:02 36.555779 -121.750749 298 2592ft 134kts
18-Aug-18 14:03 36.568005 -121.785765 299 1269ft 94kts
18-Aug-18 14:04 36.577770 -121.814187 291 732ft 92kts
18-Aug-18 14:05 36.586494 -121.838144 270 233ft 40kts
18-Aug-18 14:06 36.586879 -121.838886 13 229ft 0kts
18-Aug-18 14:07 36.587538 -121.838871 300 226ft 0kts

Navigation Log

Ident Type
Flight plan parsing failed, navigation log unavailable